Time;durP1;ratioP1;P1;durP2;ratioP2;P2;SDS_P1;SDS_P2;PMS_P1;PMS_P2;Temp;Humidity;BMP_temperature;BMP_pressure;BME280_temperature;BME280_humidity;BME280_pressure;Samples;Min_cycle;Max_cycle;Signal;HPM_P1;HPM_P2
2023/08/29 00:00:46;;;;;;;0.50;0.50;;;;;;;12.12;67.42;98939.97;4869501;29;20515;-91
2023/08/29 00:03:13;;;;;;;0.50;0.50;;;;;;;12.04;67.33;98950.44;4862825;29;20050;-91
2023/08/29 00:05:41;;;;;;;0.50;0.50;;;;;;;11.99;67.49;98956.59;4864433;29;20081;-90
2023/08/29 00:08:08;;;;;;;0.50;0.50;;;;;;;11.99;67.93;98956.59;4864863;29;20057;-91
2023/08/29 00:10:35;;;;;;;0.50;0.50;;;;;;;11.94;67.95;98951.16;4864831;29;20140;-91
2023/08/29 00:13:03;;;;;;;0.50;0.50;;;;;;;11.90;68.24;98956.25;4875515;29;20034;-90
2023/08/29 00:15:30;;;;;;;0.50;0.50;;;;;;;11.87;68.38;98955.94;4884963;29;20050;-91
2023/08/29 00:17:57;;;;;;;0.50;0.50;;;;;;;11.78;68.98;98941.22;4869797;29;20057;-90
2023/08/29 00:20:25;;;;;;;0.50;0.50;;;;;;;11.81;68.91;98948.81;4883166;29;20037;-91
2023/08/29 00:22:53;;;;;;;0.50;0.50;;;;;;;11.80;69.06;98957.97;4885287;29;20060;-91
2023/08/29 00:25:20;;;;;;;0.50;0.50;;;;;;;11.79;69.25;98964.47;4879720;29;20053;-92
2023/08/29 00:27:47;;;;;;;0.50;0.50;;;;;;;11.79;69.15;98956.38;4863556;29;20160;-92
2023/08/29 00:30:14;;;;;;;0.50;0.50;;;;;;;11.81;69.09;98956.94;4879948;29;20053;-92
2023/08/29 00:32:41;;;;;;;0.50;0.50;;;;;;;11.82;69.07;98950.44;4848686;29;20152;-91
2023/08/29 00:35:10;;;;;;;0.40;0.40;;;;;;;11.88;68.85;98960.28;4849192;29;20193;-91
2023/08/29 00:37:41;;;;;;;0.50;0.50;;;;;;;11.80;68.96;98944.47;4866083;29;20105;-91
2023/08/29 00:40:12;;;;;;;0.50;0.50;;;;;;;11.82;69.01;98947.72;4867494;29;20045;-93
2023/08/29 00:42:40;;;;;;;0.50;0.50;;;;;;;11.78;69.17;98963.66;4888885;29;20056;-91
2023/08/29 00:45:08;;;;;;;0.50;0.50;;;;;;;11.76;69.14;98943.34;4860922;29;20058;-92
2023/08/29 00:47:38;;;;;;;0.55;0.55;;;;;;;11.74;69.40;98946.31;4866335;29;20050;-92
2023/08/29 00:50:08;;;;;;;0.50;0.50;;;;;;;11.72;69.05;98943.03;4867408;29;20057;-93
2023/08/29 00:52:39;;;;;;;0.52;0.52;;;;;;;11.69;69.14;98938.13;4877370;29;20034;-90
2023/08/29 00:55:08;;;;;;;0.50;0.50;;;;;;;11.71;69.16;98930.59;4869447;29;20057;-91
2023/08/29 00:57:36;;;;;;;0.50;0.50;;;;;;;11.66;69.40;98912.44;4876508;29;20130;-92
2023/08/29 01:00:05;;;;;;;0.50;0.50;;;;;;;11.74;69.25;98921.97;4862530;29;20512;-91
2023/08/29 01:02:32;;;;;;;0.50;0.50;;;;;;;11.75;68.93;98922.78;4845970;29;20053;-91
2023/08/29 01:05:01;;;;;;;0.50;0.50;;;;;;;11.76;68.76;98924.44;4845644;29;20057;-91
2023/08/29 01:07:29;;;;;;;0.60;0.60;;;;;;;11.74;68.94;98927.38;4862811;29;20507;-92
2023/08/29 01:09:56;;;;;;;0.50;0.50;;;;;;;11.73;68.87;98923.06;4848096;29;20074;-91
2023/08/29 01:12:41;;;;;;;0.50;0.50;;;;;;;11.79;68.79;98932.03;4862703;29;20058;-91
2023/08/29 01:15:11;;;;;;;;;;;;;;;11.75;68.66;98931.72;4890451;29;20061;-92
2023/08/29 01:17:44;;;;;;;0.50;0.50;;;;;;;11.70;69.27;98937.91;4844773;29;19928;-91
2023/08/29 01:20:13;;;;;;;0.60;0.60;;;;;;;11.69;68.98;98930.84;4860268;29;20108;-91
2023/08/29 01:23:18;;;;;;;0.50;0.50;;;;;;;11.74;69.28;98943.59;4861155;29;20569;-91
2023/08/29 01:26:17;;;;;;;0.50;0.50;;;;;;;11.77;69.45;98948.50;4844020;29;20080;-92
2023/08/29 01:28:48;;;;;;;0.55;0.55;;;;;;;11.78;69.17;98952.03;4806473;29;20322;-91
2023/08/29 01:31:16;;;;;;;0.50;0.50;;;;;;;11.79;68.85;98948.25;4821388;29;20054;-91
2023/08/29 01:33:46;;;;;;;0.50;0.50;;;;;;;11.78;68.87;98950.13;4791921;29;20050;-90
2023/08/29 01:36:13;;;;;;;0.50;0.50;;;;;;;11.76;69.15;98949.56;4806161;29;20495;-91
2023/08/29 01:38:40;;;;;;;0.40;0.40;;;;;;;11.76;69.43;98948.75;4806072;29;20098;-91
2023/08/29 01:41:08;;;;;;;0.50;0.50;;;;;;;11.78;69.10;98941.22;4822667;29;20065;-90
2023/08/29 01:43:35;;;;;;;0.50;0.50;;;;;;;11.81;68.95;98940.72;4808335;29;20658;-91
2023/08/29 01:46:03;;;;;;;0.50;0.50;;;;;;;11.83;68.53;98941.28;4822161;29;20066;-90
2023/08/29 01:48:31;;;;;;;0.50;0.50;;;;;;;11.82;68.84;98942.31;4821521;29;20099;-91
2023/08/29 01:50:59;;;;;;;0.50;0.50;;;;;;;11.80;69.02;98939.06;4821415;29;20050;-91
2023/08/29 01:53:26;;;;;;;0.50;0.50;;;;;;;11.82;69.01;98945.84;4791827;29;20050;-89
2023/08/29 01:55:54;;;;;;;0.50;0.50;;;;;;;11.83;68.92;98946.69;4821919;29;20058;-91
2023/08/29 01:58:24;;;;;;;0.40;0.40;;;;;;;11.84;68.98;98945.59;4821315;29;20467;-91
2023/08/29 02:00:52;;;;;;;0.50;0.50;;;;;;;11.83;68.98;98952.09;4818970;29;20054;-91
2023/08/29 02:03:21;;;;;;;0.60;0.60;;;;;;;11.83;68.90;98954.78;4823026;29;20046;-91
2023/08/29 02:05:49;;;;;;;0.43;0.43;;;;;;;11.83;69.15;98952.91;4858778;29;20056;-91
2023/08/29 02:08:16;;;;;;;0.60;0.60;;;;;;;11.86;69.33;98952.41;4862001;29;20108;-92
2023/08/29 02:10:43;;;;;;;0.60;0.60;;;;;;;11.86;69.15;98944.31;4860037;29;20102;-91
2023/08/29 02:13:10;;;;;;;0.50;0.50;;;;;;;11.86;68.81;98943.47;4860813;29;20539;-90
2023/08/29 02:15:58;;;;;;;0.60;0.60;;;;;;;11.91;68.95;98957.06;4847381;29;20057;-90
2023/08/29 02:18:25;;;;;;;0.57;0.57;;;;;;;11.90;68.99;98958.13;4845799;29;20050;-91
2023/08/29 02:20:53;;;;;;;0.60;0.60;;;;;;;11.92;68.65;98950.56;4866730;29;20053;-91
2023/08/29 02:23:20;;;;;;;0.50;0.50;;;;;;;11.90;68.74;98955.41;4877559;29;20577;-91
2023/08/29 02:25:59;;;;;;;0.60;0.60;;;;;;;11.93;69.16;98960.34;4860254;29;20550;-91
2023/08/29 02:28:27;;;;;;;0.50;0.50;;;;;;;11.91;68.89;98954.38;4860237;29;20054;-90
2023/08/29 02:30:54;;;;;;;0.50;0.50;;;;;;;11.91;68.93;98947.06;4874685;29;20420;-90
2023/08/29 02:33:21;;;;;;;0.50;0.50;;;;;;;11.93;69.12;98957.63;4863082;29;20056;-91
2023/08/29 02:35:50;;;;;;;0.50;0.50;;;;;;;11.97;69.55;98961.44;4877489;29;20057;-91
2023/08/29 02:39:08;;;;;;;0.60;0.60;;;;;;;11.93;69.37;98954.94;4863376;29;20057;-91
2023/08/29 02:41:38;;;;;;;0.50;0.50;;;;;;;11.80;69.32;98963.38;4878696;29;20065;-90
2023/08/29 02:44:05;;;;;;;0.50;0.50;;;;;;;11.75;69.63;98952.53;4864097;29;20060;-89
2023/08/29 02:46:34;;;;;;;0.50;0.50;;;;;;;11.79;70.11;98954.47;4866244;29;20053;-92
2023/08/29 02:49:01;;;;;;;0.50;0.50;;;;;;;11.85;69.77;98958.03;4858763;29;20042;-89
2023/08/29 02:51:28;;;;;;;0.50;0.50;;;;;;;11.84;69.99;98951.81;4865146;29;20069;-89
2023/08/29 02:53:55;;;;;;;0.50;0.50;;;;;;;11.77;70.18;98947.69;4819067;29;20074;-89
2023/08/29 02:56:23;;;;;;;0.50;0.50;;;;;;;11.82;70.17;98948.53;4865008;29;20157;-88
2023/08/29 02:58:50;;;;;;;0.50;0.50;;;;;;;11.79;70.11;98953.66;4865530;29;20045;-87
2023/08/29 03:01:17;;;;;;;0.55;0.55;;;;;;;11.86;70.24;98955.13;4865876;29;20057;-90
2023/08/29 03:03:45;;;;;;;0.50;0.50;;;;;;;11.89;69.94;98953.81;4868993;29;20074;-87
2023/08/29 03:06:14;;;;;;;0.50;0.50;;;;;;;11.84;70.10;98951.00;4824197;29;20033;-87
2023/08/29 03:09:37;;;;;;;0.60;0.60;;;;;;;11.86;70.23;98955.13;4868675;29;20030;-90
2023/08/29 03:12:07;;;;;;;0.60;0.60;;;;;;;11.84;70.38;98951.00;4850973;29;20063;-87
2023/08/29 03:14:34;;;;;;;0.50;0.50;;;;;;;11.95;70.30;98952.81;4868078;29;20113;-88
2023/08/29 03:17:03;;;;;;;0.50;0.50;;;;;;;11.96;70.05;98956.31;4851797;29;20038;-90
2023/08/29 03:19:31;;;;;;;0.60;0.60;;;;;;;11.92;70.01;98958.69;4836776;29;20907;-89
2023/08/29 03:21:59;;;;;;;0.60;0.60;;;;;;;11.93;70.33;98961.16;4852271;29;20049;-87
2023/08/29 03:24:27;;;;;;;0.60;0.60;;;;;;;11.97;69.95;98955.22;4849010;29;20046;-92
2023/08/29 03:26:54;;;;;;;0.50;0.50;;;;;;;11.96;70.06;98953.59;4865078;29;20029;-92
2023/08/29 03:29:21;;;;;;;0.50;0.50;;;;;;;12.00;69.94;98957.41;4903221;29;20090;-90
2023/08/29 03:31:49;;;;;;;0.50;0.50;;;;;;;11.97;69.92;98966.84;4894720;29;20429;-91
2023/08/29 03:34:17;;;;;;;0.50;0.50;;;;;;;11.96;69.99;98969.84;4872250;29;20056;-91
2023/08/29 03:36:44;;;;;;;0.50;0.50;;;;;;;11.98;70.31;98965.81;4848967;29;20057;-91
2023/08/29 03:39:12;;;;;;;0.50;0.50;;;;;;;12.00;70.32;98960.13;4843414;29;20117;-92
2023/08/29 03:41:39;;;;;;;0.50;0.50;;;;;;;12.03;70.32;98960.44;4879950;29;20030;-89
2023/08/29 03:44:08;;;;;;;0.55;0.55;;;;;;;12.04;70.21;98953.97;4867516;29;20097;-90
2023/08/29 03:46:36;;;;;;;0.50;0.50;;;;;;;12.10;70.30;98961.06;4867798;29;20059;-91
2023/08/29 03:49:03;;;;;;;0.57;0.57;;;;;;;12.11;70.30;98949.16;4871269;29;20058;-91
2023/08/29 03:51:31;;;;;;;0.50;0.50;;;;;;;12.22;70.05;98960.09;4852558;29;20114;-90
2023/08/29 03:53:59;;;;;;;0.50;0.50;;;;;;;12.18;69.71;98956.25;4851485;29;20102;-92
2023/08/29 03:56:27;;;;;;;0.52;0.52;;;;;;;12.26;69.81;98961.22;4849082;29;20083;-92
2023/08/29 03:58:55;;;;;;;0.50;0.50;;;;;;;12.31;69.21;98950.44;4850926;29;20076;-89
2023/08/29 04:01:22;;;;;;;0.50;0.50;;;;;;;12.29;69.36;98956.09;4865544;29;20034;-92
2023/08/29 04:03:50;;;;;;;0.50;0.50;;;;;;;12.26;69.60;98948.50;4881308;29;20211;-92
2023/08/29 04:06:20;;;;;;;0.50;0.50;;;;;;;12.24;69.98;98947.94;4884230;29;20067;-93
2023/08/29 04:08:49;;;;;;;0.50;0.50;;;;;;;12.28;70.17;98948.22;4866785;29;20052;-92
2023/08/29 04:11:20;;;;;;;0.50;0.50;;;;;;;12.39;69.94;98951.84;4850892;29;20104;-87
2023/08/29 04:13:50;;;;;;;0.50;0.50;;;;;;;12.34;69.71;98944.50;4866075;29;20054;-89
2023/08/29 04:16:20;;;;;;;0.40;0.40;;;;;;;12.31;69.87;98955.84;4869935;29;20037;-91
2023/08/29 04:18:47;;;;;;;0.50;0.50;;;;;;;12.30;69.65;98946.88;4893432;29;20102;-92
2023/08/29 04:21:22;;;;;;;0.40;0.40;;;;;;;12.31;70.12;98953.13;4827373;29;20050;-92
2023/08/29 04:23:50;;;;;;;0.50;0.50;;;;;;;12.28;70.40;98945.50;4872078;29;20056;-89
2023/08/29 04:26:18;;;;;;;0.60;0.60;;;;;;;12.27;70.44;98947.41;4873760;29;20049;-89
2023/08/29 04:28:45;;;;;;;0.50;0.50;;;;;;;12.35;70.19;98946.13;4871899;29;20457;-91
2023/08/29 04:31:12;;;;;;;0.50;0.50;;;;;;;12.38;70.06;98947.50;4874993;29;20072;-91
2023/08/29 04:33:42;;;;;;;0.50;0.50;;;;;;;12.36;70.27;98935.06;4881809;29;20064;-88
2023/08/29 04:36:10;;;;;;;0.50;0.50;;;;;;;12.36;69.96;98942.34;4856450;29;20179;-92
2023/08/29 04:38:42;;;;;;;0.50;0.50;;;;;;;12.43;70.11;98942.13;4887917;29;20060;-88
2023/08/29 04:41:11;;;;;;;0.60;0.60;;;;;;;12.48;69.96;98950.28;4886120;29;20121;-91
2023/08/29 04:43:39;;;;;;;0.60;0.60;;;;;;;12.51;70.22;98947.09;4884728;29;20497;-91
2023/08/29 04:46:08;;;;;;;0.57;0.57;;;;;;;12.56;70.25;98958.75;4885287;29;20051;-91
2023/08/29 04:48:36;;;;;;;0.52;0.52;;;;;;;12.50;70.04;98959.78;4856961;29;20060;-90
2023/08/29 04:51:06;;;;;;;0.50;0.50;;;;;;;12.51;70.09;98961.44;4897799;29;20076;-90
2023/08/29 04:53:39;;;;;;;0.50;0.50;;;;;;;12.57;70.23;98982.03;4867047;29;20048;-91
2023/08/29 04:56:09;;;;;;;0.50;0.50;;;;;;;12.66;69.80;98968.03;4854572;29;20062;-90
2023/08/29 05:03:14;;;;;;;0.50;0.50;;;;;;;12.70;69.10;98978.09;4793820;29;20047;-90
2023/08/29 05:05:51;;;;;;;0.60;0.60;;;;;;;12.79;69.05;98983.84;4780689;29;20774;-90
2023/08/29 05:08:21;;;;;;;0.60;0.60;;;;;;;12.85;69.04;98968.44;4739118;30;20552;-91
2023/08/29 05:10:49;;;;;;;0.50;0.50;;;;;;;12.87;68.67;98950.88;4695570;30;20053;-91
2023/08/29 05:13:31;;;;;;;0.60;0.60;;;;;;;12.95;68.79;98955.78;4677178;30;20416;-91
2023/08/29 05:15:59;;;;;;;0.50;0.50;;;;;;;13.17;68.50;98990.06;4676008;30;20068;-89
2023/08/29 05:18:37;;;;;;;0.50;0.50;;;;;;;13.10;67.89;98978.63;4659690;30;20061;-90
2023/08/29 05:21:07;;;;;;;0.60;0.60;;;;;;;13.11;67.86;98969.44;4686885;30;20073;-91
2023/08/29 05:23:38;;;;;;;0.50;0.50;;;;;;;13.11;68.16;98962.09;4673360;30;20077;-90
2023/08/29 05:26:06;;;;;;;0.55;0.55;;;;;;;13.38;67.97;98983.69;4690813;30;20116;-89
2023/08/29 05:28:33;;;;;;;0.57;0.57;;;;;;;13.44;68.12;98973.69;4722699;30;20600;-90
2023/08/29 05:31:13;;;;;;;0.50;0.50;;;;;;;13.59;67.39;98975.66;4793822;29;20086;-91
2023/08/29 05:33:46;;;;;;;0.43;0.43;;;;;;;13.40;67.26;98951.72;4778191;30;20128;-92
2023/08/29 05:36:28;;;;;;;0.50;0.50;;;;;;;13.42;67.10;98954.19;4766752;30;20113;-92
2023/08/29 05:38:58;;;;;;;0.50;0.50;;;;;;;13.49;67.11;98951.22;4776277;30;20158;-89
2023/08/29 05:41:34;;;;;;;0.50;0.50;;;;;;;13.65;67.48;98958.34;4767053;29;20116;-92
2023/08/29 05:44:03;;;;;;;0.50;0.50;;;;;;;13.60;67.22;98934.75;4776977;29;20057;-90
2023/08/29 05:46:31;;;;;;;0.50;0.50;;;;;;;13.70;67.08;98944.81;4806346;29;20085;-91
2023/08/29 05:49:03;;;;;;;0.50;0.50;;;;;;;13.84;66.64;98945.09;4863674;29;20076;-91
2023/08/29 05:51:32;;;;;;;0.50;0.50;;;;;;;13.92;66.26;98955.44;4819959;29;20094;-91
2023/08/29 05:54:04;;;;;;;0.50;0.50;;;;;;;13.79;66.04;98926.09;4835951;29;20053;-91
2023/08/29 05:56:39;;;;;;;0.50;0.50;;;;;;;13.75;66.26;98946.69;4839262;29;20053;-91
2023/08/29 05:59:07;;;;;;;0.55;0.55;;;;;;;13.75;67.17;98931.25;4871196;29;20135;-88
2023/08/29 06:01:38;;;;;;;0.40;0.40;;;;;;;13.86;66.91;98943.75;4870386;29;20060;-91
2023/08/29 06:04:07;;;;;;;0.50;0.50;;;;;;;13.93;66.86;98951.66;4867379;29;20101;-90
2023/08/29 06:06:39;;;;;;;0.50;0.50;;;;;;;13.94;67.65;98966.03;4885055;29;20049;-92
2023/08/29 06:09:10;;;;;;;0.50;0.50;;;;;;;13.84;67.18;98955.97;4866373;29;20611;-90
2023/08/29 06:11:39;;;;;;;0.50;0.50;;;;;;;13.88;67.79;98963.28;4884365;29;20085;-90
2023/08/29 06:14:10;;;;;;;0.50;0.50;;;;;;;13.61;68.16;98958.03;4869272;29;20068;-91
2023/08/29 06:16:43;;;;;;;0.50;0.50;;;;;;;13.57;67.94;98975.09;4852704;29;20053;-92
2023/08/29 06:19:11;;;;;;;0.50;0.50;;;;;;;13.52;68.36;98975.09;4879017;29;20160;-92
2023/08/29 06:21:39;;;;;;;0.50;0.50;;;;;;;13.50;68.07;98983.50;4895939;29;20052;-92
2023/08/29 06:24:08;;;;;;;0.50;0.50;;;;;;;13.37;68.36;98959.59;4881763;29;20086;-92
2023/08/29 06:26:37;;;;;;;0.50;0.50;;;;;;;13.41;68.19;98956.06;4887009;29;20053;-91
2023/08/29 06:29:05;;;;;;;0.50;0.50;;;;;;;13.59;68.34;98983.78;4869558;29;20048;-91
2023/08/29 06:31:32;;;;;;;0.40;0.40;;;;;;;13.63;68.16;98971.34;4856005;29;20080;-90
2023/08/29 06:34:02;;;;;;;0.50;0.50;;;;;;;13.79;67.85;98986.59;4867476;29;20061;-91
2023/08/29 06:36:36;;;;;;;0.50;0.50;;;;;;;13.77;67.65;98974.38;4863845;29;20053;-92
2023/08/29 06:39:09;;;;;;;0.50;0.50;;;;;;;13.90;67.71;98987.47;4806341;29;20047;-90
2023/08/29 06:41:38;;;;;;;0.50;0.50;;;;;;;13.78;67.66;98978.72;4802392;29;20153;-90
2023/08/29 06:44:13;;;;;;;0.50;0.50;;;;;;;13.70;67.75;98963.78;4787471;29;20239;-89
2023/08/29 06:46:43;;;;;;;0.50;0.50;;;;;;;13.85;66.84;98996.38;4795902;29;20549;-90
2023/08/29 06:49:14;;;;;;;0.40;0.40;;;;;;;13.76;67.30;98980.88;4796607;29;20085;-90
2023/08/29 06:51:43;;;;;;;0.50;0.50;;;;;;;13.89;66.98;99002.09;4791801;29;20064;-90
2023/08/29 06:54:11;;;;;;;0.50;0.50;;;;;;;13.93;66.67;98997.78;4793577;30;20055;-91
2023/08/29 06:56:38;;;;;;;0.40;0.40;;;;;;;13.79;66.77;98997.44;4793510;29;20062;-91
2023/08/29 06:59:10;;;;;;;0.50;0.50;;;;;;;13.88;67.21;99011.31;4790278;29;20056;-90
2023/08/29 07:01:43;;;;;;;0.50;0.50;;;;;;;13.92;67.21;99000.75;4797604;29;20055;-90
2023/08/29 07:04:13;;;;;;;0.50;0.50;;;;;;;13.99;67.00;98990.47;4781002;30;20090;-90
2023/08/29 07:06:40;;;;;;;0.57;0.57;;;;;;;14.26;66.84;98992.97;4799869;29;20103;-90
2023/08/29 07:09:08;;;;;;;0.50;0.50;;;;;;;14.45;66.09;98996.78;4845594;29;20027;-91
2023/08/29 07:11:35;;;;;;;0.50;0.50;;;;;;;14.63;65.50;98975.63;4835649;29;20067;-89
2023/08/29 07:14:03;;;;;;;0.50;0.50;;;;;;;14.77;64.89;98984.88;4815259;29;20611;-90
2023/08/29 07:16:31;;;;;;;0.50;0.50;;;;;;;14.83;64.18;98989.22;4843220;29;20556;-90
2023/08/29 07:18:59;;;;;;;0.50;0.50;;;;;;;14.91;63.88;99004.16;4828757;29;20509;-91
2023/08/29 07:21:29;;;;;;;0.50;0.50;;;;;;;14.83;64.05;98994.66;4846920;29;20066;-91
2023/08/29 07:24:03;;;;;;;0.43;0.43;;;;;;;14.81;64.33;99005.00;4814568;29;20204;-91
2023/08/29 07:26:38;;;;;;;0.50;0.50;;;;;;;14.69;64.69;98990.88;4850165;29;20086;-90
2023/08/29 07:29:09;;;;;;;0.50;0.50;;;;;;;14.80;64.72;98984.34;4870016;29;20053;-90
2023/08/29 07:31:36;;;;;;;0.50;0.50;;;;;;;14.92;64.38;98970.47;4856960;29;20076;-89
2023/08/29 07:34:04;;;;;;;0.50;0.50;;;;;;;15.03;63.86;98993.81;4878045;29;20519;-91
2023/08/29 07:36:33;;;;;;;0.50;0.50;;;;;;;15.07;63.60;98984.03;4862134;29;20048;-90
2023/08/29 07:39:00;;;;;;;0.40;0.40;;;;;;;15.15;63.61;98985.38;4882424;29;20100;-90
2023/08/29 07:41:35;;;;;;;0.43;0.43;;;;;;;15.39;63.72;98999.19;4870624;29;20072;-90
2023/08/29 07:44:03;;;;;;;0.50;0.50;;;;;;;15.46;63.17;98996.97;4875872;29;20069;-89
2023/08/29 07:46:36;;;;;;;0.50;0.50;;;;;;;15.54;62.63;98982.00;4871370;29;20133;-91
2023/08/29 07:49:29;;;;;;;0.50;0.50;;;;;;;15.63;62.12;98968.66;4887144;29;20184;-90
2023/08/29 07:52:00;;;;;;;0.50;0.50;;;;;;;15.82;61.96;98983.28;4869347;29;20079;-91
2023/08/29 07:54:28;;;;;;;0.50;0.50;;;;;;;15.84;62.07;98989.25;4881542;29;20059;-91
2023/08/29 07:56:56;;;;;;;0.45;0.45;;;;;;;15.90;61.99;98990.88;4865506;29;20079;-90
2023/08/29 07:59:25;;;;;;;0.50;0.50;;;;;;;15.57;62.23;98979.56;4881317;29;20049;-90
2023/08/29 08:01:56;;;;;;;0.40;0.40;;;;;;;15.38;63.16;98997.56;4852385;29;20085;-90
2023/08/29 08:04:24;;;;;;;0.40;0.40;;;;;;;15.32;63.64;99004.91;4871767;29;20081;-91
2023/08/29 08:06:53;;;;;;;0.50;0.50;;;;;;;15.31;63.67;98994.31;4851559;29;20093;-91
2023/08/29 08:09:23;;;;;;;0.45;0.45;;;;;;;15.46;63.41;99002.44;4849765;29;20425;-89
2023/08/29 08:11:51;;;;;;;0.43;0.43;;;;;;;15.54;63.22;98996.41;4882396;29;20049;-89
2023/08/29 08:14:19;;;;;;;0.40;0.40;;;;;;;15.53;63.47;99002.94;4867250;29;20064;-89
2023/08/29 08:16:51;;;;;;;0.40;0.40;;;;;;;15.39;63.89;98988.28;4838059;29;20144;-89
2023/08/29 08:19:24;;;;;;;0.40;0.40;;;;;;;15.41;63.31;98993.47;4846547;29;20062;-91
2023/08/29 08:22:08;;;;;;;0.47;0.47;;;;;;;15.32;63.76;98979.63;4798444;29;20307;-90
2023/08/29 08:24:37;;;;;;;0.50;0.50;;;;;;;15.54;63.67;98993.69;4811200;29;20598;-89
2023/08/29 08:27:07;;;;;;;0.50;0.50;;;;;;;15.66;63.39;98987.94;4793387;29;20059;-90
2023/08/29 08:30:00;;;;;;;0.50;0.50;;;;;;;15.71;63.33;98993.41;4794057;29;20126;-89
2023/08/29 08:32:31;;;;;;;0.50;0.50;;;;;;;15.69;64.18;99006.44;4791972;30;20051;-91
2023/08/29 08:34:59;;;;;;;0.50;0.50;;;;;;;15.70;63.57;98990.94;4781440;30;20150;-90
2023/08/29 08:37:29;;;;;;;0.43;0.43;;;;;;;15.74;63.64;99013.78;4792257;29;20128;-89
2023/08/29 08:40:00;;;;;;;0.40;0.40;;;;;;;15.60;63.81;98989.06;4825141;29;20057;-89
2023/08/29 08:42:33;;;;;;;0.40;0.40;;;;;;;15.61;64.05;98996.13;4813088;29;20149;-90
2023/08/29 08:45:22;;;;;;;0.40;0.40;;;;;;;15.54;65.00;98996.41;4798991;29;20050;-91
2023/08/29 08:47:55;;;;;;;0.40;0.40;;;;;;;15.74;64.01;98990.09;4813705;29;20078;-91
2023/08/29 08:50:27;;;;;;;0.50;0.50;;;;;;;15.87;63.64;98985.97;4787439;29;20121;-91
2023/08/29 08:52:56;;;;;;;0.50;0.50;;;;;;;16.01;62.97;98997.88;4855206;29;20057;-91
2023/08/29 08:55:50;;;;;;;0.40;0.40;;;;;;;16.08;62.70;98994.84;4820482;29;20057;-89
2023/08/29 09:02:55;;;;;;;0.50;0.50;;;;;;;16.12;62.87;98986.94;4789677;30;20060;-89
2023/08/29 09:05:23;;;;;;;0.50;0.50;;;;;;;16.03;62.56;98997.63;4770546;30;20103;-91
2023/08/29 09:07:53;;;;;;;0.50;0.50;;;;;;;15.91;62.59;98983.53;4742117;30;20571;-91
2023/08/29 09:10:20;;;;;;;0.50;0.50;;;;;;;16.08;62.84;99004.91;4778089;30;20056;-90
2023/08/29 09:12:51;;;;;;;0.50;0.50;;;;;;;15.96;62.98;98981.56;4728458;30;20092;-89
2023/08/29 09:15:22;;;;;;;0.50;0.50;;;;;;;16.00;62.89;98971.78;4741273;30;20072;-89
2023/08/29 09:17:55;;;;;;;0.50;0.50;;;;;;;16.16;62.89;98972.47;4761433;30;20052;-89
2023/08/29 09:20:43;;;;;;;0.50;0.50;;;;;;;16.46;62.81;98981.53;4748577;30;20065;-89
2023/08/29 09:23:25;;;;;;;0.50;0.50;;;;;;;16.52;63.56;98990.50;4745397;30;20060;-89
2023/08/29 09:26:13;;;;;;;0.50;0.50;;;;;;;16.65;64.03;98998.00;4746786;30;20052;-90
2023/08/29 09:29:18;;;;;;;0.50;0.50;;;;;;;16.77;63.93;98997.66;4743912;30;20129;-90
2023/08/29 09:31:47;;;;;;;0.50;0.50;;;;;;;16.83;63.66;99002.78;4754467;30;20060;-90
2023/08/29 09:34:28;;;;;;;0.50;0.50;;;;;;;16.86;63.78;99002.25;4784617;29;20070;-91
2023/08/29 09:36:57;;;;;;;0.50;0.50;;;;;;;16.90;63.91;98986.91;4798352;29;20075;-89
2023/08/29 09:39:26;;;;;;;0.50;0.50;;;;;;;16.99;63.50;98991.75;4822572;29;20049;-91
2023/08/29 09:42:10;;;;;;;0.50;0.50;;;;;;;17.16;63.75;98989.41;4847106;29;20054;-90
2023/08/29 09:44:41;;;;;;;0.45;0.45;;;;;;;17.39;62.72;98987.00;4845464;29;20109;-89
2023/08/29 09:47:22;;;;;;;0.50;0.50;;;;;;;17.62;62.02;98988.88;4862485;29;20046;-90
2023/08/29 09:49:49;;;;;;;0.50;0.50;;;;;;;17.74;61.26;98983.84;4870158;29;20080;-89
2023/08/29 09:52:19;;;;;;;0.50;0.50;;;;;;;17.74;60.71;98975.66;4872401;29;20045;-89
2023/08/29 09:55:06;;;;;;;0.50;0.50;;;;;;;17.76;60.73;98980.81;4896252;29;20060;-89
2023/08/29 09:57:40;;;;;;;0.40;0.40;;;;;;;17.88;60.89;98985.91;4882970;29;20457;-90
2023/08/29 10:00:33;;;;;;;0.50;0.50;;;;;;;17.96;59.41;98977.84;4837527;29;20049;-90
2023/08/29 10:03:14;;;;;;;0.50;0.50;;;;;;;17.71;59.40;98973.50;4859796;29;20102;-90
2023/08/29 10:05:51;;;;;;;0.50;0.50;;;;;;;17.76;60.04;98981.63;4818807;29;20515;-91
2023/08/29 10:08:32;;;;;;;0.50;0.50;;;;;;;17.76;60.20;98983.56;4798438;29;20050;-89
2023/08/29 10:11:00;;;;;;;;;;;;;;;17.66;59.75;98995.41;4813066;29;20055;-90
2023/08/29 10:13:37;;;;;;;0.50;0.50;;;;;;;17.51;59.79;98999.13;4828847;29;19984;-90
2023/08/29 10:16:10;;;;;;;0.40;0.40;;;;;;;17.25;59.88;98973.25;4819297;29;20047;-89
2023/08/29 10:19:12;;;;;;;0.40;0.40;;;;;;;17.44;59.46;98997.84;4823179;29;20061;-90
2023/08/29 10:21:42;;;;;;;0.50;0.50;;;;;;;17.35;59.41;99002.31;4813498;29;20115;-91
2023/08/29 10:24:12;;;;;;;0.40;0.40;;;;;;;17.09;60.05;98975.28;4809328;29;20054;-92
2023/08/29 10:26:41;;;;;;;0.50;0.50;;;;;;;17.37;60.29;99008.28;4795956;29;20518;-91
2023/08/29 10:29:09;;;;;;;0.50;0.50;;;;;;;17.41;59.53;98999.22;4818006;29;20067;-89
2023/08/29 10:31:36;;;;;;;0.50;0.50;;;;;;;17.30;59.45;98995.00;4808920;29;20036;-90
2023/08/29 10:34:15;;;;;;;0.40;0.40;;;;;;;17.29;59.54;99001.53;4790604;29;20055;-90
2023/08/29 10:36:45;;;;;;;0.40;0.40;;;;;;;17.03;59.98;98995.53;4816219;29;20050;-90
2023/08/29 10:39:21;;;;;;;0.40;0.40;;;;;;;16.83;60.52;98983.72;4835719;29;20156;-91
2023/08/29 10:41:56;;;;;;;0.40;0.40;;;;;;;16.97;60.94;99013.06;4814263;29;20461;-89
2023/08/29 10:44:36;;;;;;;0.40;0.40;;;;;;;16.84;61.44;98990.81;4812262;29;20051;-89
2023/08/29 10:47:35;;;;;;;0.40;0.40;;;;;;;17.04;60.95;99008.88;4794247;29;20126;-91
2023/08/29 10:50:05;;;;;;;0.40;0.40;;;;;;;16.88;60.76;98997.28;4780130;29;20070;-91
2023/08/29 10:52:40;;;;;;;0.40;0.40;;;;;;;16.94;61.56;99019.88;4802903;29;20152;-91
2023/08/29 10:55:29;;;;;;;0.40;0.40;;;;;;;16.84;61.75;99001.72;4815934;29;20082;-90
2023/08/29 10:58:48;;;;;;;0.40;0.40;;;;;;;16.92;61.39;99034.91;4832126;29;20157;-89
2023/08/29 11:01:27;;;;;;;0.43;0.43;;;;;;;16.64;61.49;99031.81;4848873;29;20057;-91
2023/08/29 11:03:56;;;;;;;0.40;0.40;;;;;;;16.50;61.94;99025.38;4880595;29;20030;-89
2023/08/29 11:06:46;;;;;;;0.40;0.40;;;;;;;16.58;62.50;99022.84;4843098;29;20603;-90
2023/08/29 11:09:20;;;;;;;0.40;0.40;;;;;;;16.64;61.91;99026.38;4841615;29;20503;-91
2023/08/29 11:12:20;;;;;;;0.40;0.40;;;;;;;16.63;61.76;99011.09;4819230;29;20570;-89
2023/08/29 11:14:57;;;;;;;0.40;0.40;;;;;;;16.61;61.94;99016.84;4879026;29;20049;-89
2023/08/29 11:17:25;;;;;;;0.40;0.40;;;;;;;16.65;62.33;99030.72;4847277;29;20455;-90
2023/08/29 11:19:56;;;;;;;0.50;0.50;;;;;;;16.62;62.60;99001.31;4832767;29;20056;-90
2023/08/29 11:22:26;;;;;;;0.40;0.40;;;;;;;16.57;62.88;99004.88;4864923;29;20472;-89
2023/08/29 11:24:55;;;;;;;0.40;0.40;;;;;;;16.49;63.06;99010.13;4870404;29;20049;-90
2023/08/29 11:27:31;;;;;;;0.40;0.40;;;;;;;16.44;63.23;99006.34;4854523;29;20416;-91
2023/08/29 11:30:02;;;;;;;0.40;0.40;;;;;;;16.39;63.31;99002.84;4839291;29;20555;-90
2023/08/29 11:32:53;;;;;;;0.50;0.50;;;;;;;16.40;63.68;99007.97;4871431;29;20061;-90
2023/08/29 11:35:22;;;;;;;0.40;0.40;;;;;;;16.37;64.14;99005.03;4882325;29;20113;-90
2023/08/29 11:37:55;;;;;;;0.40;0.40;;;;;;;16.16;64.13;99009.78;4853807;29;20053;-90
2023/08/29 11:40:24;;;;;;;0.40;0.40;;;;;;;16.28;64.74;99017.59;4884034;29;20087;-90
2023/08/29 11:43:13;;;;;;;0.40;0.40;;;;;;;16.19;64.71;99023.63;4859418;29;20053;-91
2023/08/29 11:46:03;;;;;;;0.50;0.50;;;;;;;16.16;64.77;99037.00;4886993;29;20052;-90
2023/08/29 11:48:33;;;;;;;0.40;0.40;;;;;;;16.18;64.78;99022.03;4854421;29;20068;-90
2023/08/29 11:51:06;;;;;;;0.40;0.40;;;;;;;16.20;65.32;99038.06;4852084;29;20053;-90
2023/08/29 11:53:38;;;;;;;0.40;0.40;;;;;;;16.16;65.76;99037.00;4854848;29;20045;-90
2023/08/29 11:56:10;;;;;;;0.40;0.40;;;;;;;16.06;66.57;99047.97;4886817;29;20097;-91
2023/08/29 11:58:51;;;;;;;0.40;0.40;;;;;;;15.92;68.18;99034.13;4874040;29;20057;-91
2023/08/29 12:01:36;;;;;;;0.35;0.35;;;;;;;15.55;70.11;99024.44;4884388;29;20517;-91
2023/08/29 12:04:06;;;;;;;0.40;0.40;;;;;;;15.56;70.64;99042.38;4873662;29;20053;-91
2023/08/29 12:06:39;;;;;;;0.40;0.40;;;;;;;15.47;71.18;99022.25;4889404;29;20057;-91